PBD719 UUOO-UUWW
Flight info
| Callsign | PBD719 |
|---|---|
| Flight time | 0h 50m |
| Altitude | 30000 |
| Route | INKIN1H INKIN T384 BEPLU L749 UBONA T323 OTPAD/K0741F270 T325 LEKDO LEKDO3A |
| Aircraft | B738/M-SDE2E3FGHIRWXY/LB1 |
Departure
| Time | 2026-04-16 09:26 |
|---|---|
| Airport | Voronezh International Airport (UUOO) |
Arrival
| Time | 2026-04-16 10:16 |
|---|---|
| Airport | Vnukovo International Airport (UUWW) |
| Time | Latitude | Longitude | Altitude | Speed | Heading |
|---|---|---|---|---|---|
| 2026-04-16 09:10 | 51.81301 | 39.22601 | 524 ft | 0 kts | 222° |
| 2026-04-16 09:18 | 51.81305 | 39.22606 | 524 ft | 2 kts | 222° |
| 2026-04-16 09:18 | 51.81316 | 39.22622 | 524 ft | 2 kts | 222° |
| 2026-04-16 09:18 | 51.81327 | 39.22638 | 524 ft | 2 kts | 222° |
| 2026-04-16 09:19 | 51.81338 | 39.22655 | 524 ft | 2 kts | 222° |
| 2026-04-16 09:19 | 51.81345 | 39.22665 | 524 ft | 2 kts | 223° |
| 2026-04-16 09:19 | 51.81358 | 39.22676 | 524 ft | 2 kts | 181° |
| 2026-04-16 09:19 | 51.81372 | 39.22670 | 524 ft | 2 kts | 147° |
| 2026-04-16 09:20 | 51.81379 | 39.22662 | 524 ft | 1 kts | 126° |
| 2026-04-16 09:20 | 51.81382 | 39.22655 | 524 ft | 0 kts | 130° |
| 2026-04-16 09:22 | 51.81376 | 39.22668 | 524 ft | 5 kts | 126° |
| 2026-04-16 09:22 | 51.81331 | 39.22766 | 524 ft | 13 kts | 130° |
| 2026-04-16 09:22 | 51.81271 | 39.22878 | 524 ft | 11 kts | 136° |
| 2026-04-16 09:23 | 51.81202 | 39.22907 | 524 ft | 9 kts | 138° |
| 2026-04-16 09:23 | 51.81156 | 39.22986 | 524 ft | 10 kts | 131° |
| 2026-04-16 09:23 | 51.81096 | 39.23095 | 524 ft | 14 kts | 131° |
| 2026-04-16 09:23 | 51.81065 | 39.23230 | 524 ft | 12 kts | 92° |
| 2026-04-16 09:24 | 51.81024 | 39.23338 | 524 ft | 10 kts | 131° |
| 2026-04-16 09:24 | 51.80972 | 39.23434 | 524 ft | 14 kts | 130° |
| 2026-04-16 09:24 | 51.80893 | 39.23584 | 524 ft | 18 kts | 130° |
| 2026-04-16 09:24 | 51.80840 | 39.23750 | 524 ft | 16 kts | 75° |
| 2026-04-16 09:25 | 51.80875 | 39.23916 | 524 ft | 14 kts | 70° |
| 2026-04-16 09:25 | 51.80931 | 39.24017 | 524 ft | 12 kts | 335° |
| 2026-04-16 09:25 | 51.80989 | 39.23920 | 524 ft | 13 kts | 310° |
| 2026-04-16 09:25 | 51.81193 | 39.23544 | 524 ft | 80 kts | 310° |
| 2026-04-16 09:26 | 51.81710 | 39.22578 | 524 ft | 144 kts | 310° |
| 2026-04-16 09:26 | 51.82455 | 39.21196 | 833 ft | 171 kts | 312° |
| 2026-04-16 09:26 | 51.83251 | 39.19825 | 1568 ft | 172 kts | 313° |
| 2026-04-16 09:26 | 51.84105 | 39.18340 | 1960 ft | 187 kts | 309° |
| 2026-04-16 09:27 | 51.84913 | 39.16680 | 2536 ft | 189 kts | 307° |
| 2026-04-16 09:27 | 51.85729 | 39.15036 | 3049 ft | 197 kts | 309° |
| 2026-04-16 09:27 | 51.86639 | 39.13363 | 3670 ft | 197 kts | 311° |
| 2026-04-16 09:27 | 51.87604 | 39.11681 | 4012 ft | 215 kts | 311° |
| 2026-04-16 09:28 | 51.88633 | 39.09846 | 4427 ft | 229 kts | 310° |
| 2026-04-16 09:28 | 51.89603 | 39.07680 | 4819 ft | 244 kts | 295° |
| 2026-04-16 09:28 | 51.90307 | 39.05099 | 5286 ft | 258 kts | 291° |
| 2026-04-16 09:28 | 51.91025 | 39.02366 | 5830 ft | 269 kts | 292° |
| 2026-04-16 09:29 | 51.91773 | 38.99635 | 6553 ft | 272 kts | 292° |
| 2026-04-16 09:29 | 51.92559 | 38.96820 | 7230 ft | 278 kts | 292° |
| 2026-04-16 09:29 | 51.93362 | 38.93948 | 7897 ft | 283 kts | 292° |
| 2026-04-16 09:29 | 51.94171 | 38.91050 | 8565 ft | 288 kts | 292° |
| 2026-04-16 09:30 | 51.95010 | 38.88049 | 9239 ft | 293 kts | 291° |
| 2026-04-16 09:30 | 51.95850 | 38.85033 | 9874 ft | 298 kts | 291° |
| 2026-04-16 09:30 | 51.96697 | 38.81997 | 10515 ft | 303 kts | 291° |
| 2026-04-16 09:30 | 51.97584 | 38.78802 | 10890 ft | 317 kts | 291° |
| 2026-04-16 09:31 | 51.98501 | 38.75496 | 11254 ft | 332 kts | 291° |
| 2026-04-16 09:31 | 51.99474 | 38.71982 | 11585 ft | 347 kts | 291° |
| 2026-04-16 09:31 | 52.00482 | 38.68347 | 11921 ft | 362 kts | 291° |
| 2026-04-16 09:31 | 52.01517 | 38.64611 | 12572 ft | 366 kts | 291° |
| 2026-04-16 09:32 | 52.02561 | 38.60847 | 13217 ft | 370 kts | 291° |
| 2026-04-16 09:32 | 52.03689 | 38.57090 | 13851 ft | 375 kts | 295° |
| 2026-04-16 09:32 | 52.04987 | 38.53408 | 14487 ft | 379 kts | 299° |
| 2026-04-16 09:32 | 52.06370 | 38.49804 | 15089 ft | 383 kts | 300° |
| 2026-04-16 09:33 | 52.07804 | 38.46171 | 15696 ft | 386 kts | 300° |
| 2026-04-16 09:33 | 52.09269 | 38.42452 | 16279 ft | 390 kts | 300° |
| 2026-04-16 09:33 | 52.10727 | 38.38711 | 16877 ft | 393 kts | 300° |
| 2026-04-16 09:33 | 52.12174 | 38.34958 | 17436 ft | 396 kts | 299° |
| 2026-04-16 09:34 | 52.13616 | 38.31154 | 17996 ft | 399 kts | 297° |
| 2026-04-16 09:34 | 52.14957 | 38.27219 | 18532 ft | 400 kts | 294° |
| 2026-04-16 09:34 | 52.16105 | 38.23063 | 19121 ft | 401 kts | 289° |
| 2026-04-16 09:34 | 52.17075 | 38.18849 | 19629 ft | 404 kts | 286° |
| 2026-04-16 09:35 | 52.17986 | 38.14516 | 20183 ft | 405 kts | 285° |
| 2026-04-16 09:35 | 52.18865 | 38.10186 | 20732 ft | 407 kts | 285° |
| 2026-04-16 09:35 | 52.19748 | 38.05810 | 21259 ft | 410 kts | 285° |
| 2026-04-16 09:35 | 52.20640 | 38.01405 | 21767 ft | 412 kts | 285° |
| 2026-04-16 09:36 | 52.21550 | 37.96934 | 22329 ft | 413 kts | 285° |
| 2026-04-16 09:36 | 52.22454 | 37.92514 | 22791 ft | 416 kts | 285° |
| 2026-04-16 09:36 | 52.23373 | 37.88028 | 23256 ft | 419 kts | 285° |
| 2026-04-16 09:36 | 52.24294 | 37.83542 | 23709 ft | 421 kts | 285° |
| 2026-04-16 09:37 | 52.25227 | 37.78996 | 24150 ft | 424 kts | 285° |
| 2026-04-16 09:37 | 52.26164 | 37.74423 | 24554 ft | 427 kts | 285° |
| 2026-04-16 09:37 | 52.27106 | 37.69817 | 24949 ft | 430 kts | 285° |
| 2026-04-16 09:37 | 52.28045 | 37.65221 | 25422 ft | 431 kts | 285° |
| 2026-04-16 09:38 | 52.28996 | 37.60554 | 25739 ft | 436 kts | 285° |
| 2026-04-16 09:38 | 52.29946 | 37.55888 | 26255 ft | 435 kts | 285° |
| 2026-04-16 09:38 | 52.30890 | 37.51247 | 26852 ft | 432 kts | 285° |
| 2026-04-16 09:38 | 52.31849 | 37.46527 | 27349 ft | 431 kts | 284° |
| 2026-04-16 09:39 | 52.32782 | 37.41913 | 27771 ft | 431 kts | 284° |
| 2026-04-16 09:39 | 52.33723 | 37.37251 | 28225 ft | 431 kts | 284° |
| 2026-04-16 09:39 | 52.34653 | 37.32631 | 28681 ft | 430 kts | 283° |
| 2026-04-16 09:39 | 52.35598 | 37.27992 | 29133 ft | 429 kts | 285° |
| 2026-04-16 09:40 | 52.36715 | 37.23472 | 29525 ft | 432 kts | 291° |
| 2026-04-16 09:40 | 52.38229 | 37.19214 | 29873 ft | 438 kts | 301° |
| 2026-04-16 09:40 | 52.40199 | 37.15415 | 30113 ft | 446 kts | 313° |
| 2026-04-16 09:40 | 52.42694 | 37.12387 | 30129 ft | 452 kts | 327° |
| 2026-04-16 09:41 | 52.45557 | 37.10266 | 30125 ft | 453 kts | 339° |
| 2026-04-16 09:41 | 52.51723 | 37.07825 | 30126 ft | 457 kts | 348° |
| 2026-04-16 09:42 | 52.57972 | 37.06271 | 30122 ft | 458 kts | 351° |
| 2026-04-16 09:42 | 52.64303 | 37.04878 | 30118 ft | 458 kts | 351° |
| 2026-04-16 09:43 | 52.70622 | 37.03464 | 30120 ft | 461 kts | 352° |
| 2026-04-16 09:43 | 52.76916 | 37.02015 | 30122 ft | 459 kts | 351° |
| 2026-04-16 09:44 | 52.83217 | 37.00536 | 30115 ft | 460 kts | 351° |
| 2026-04-16 09:44 | 52.89579 | 36.99023 | 30122 ft | 463 kts | 351° |
| 2026-04-16 09:45 | 52.95890 | 36.97516 | 30123 ft | 462 kts | 351° |
| 2026-04-16 09:45 | 53.02268 | 36.95988 | 30118 ft | 462 kts | 352° |
| 2026-04-16 09:46 | 53.08632 | 36.94457 | 30122 ft | 463 kts | 352° |
| 2026-04-16 09:46 | 53.14975 | 36.92924 | 30113 ft | 463 kts | 352° |
| 2026-04-16 09:47 | 53.21352 | 36.91377 | 30118 ft | 464 kts | 352° |
| 2026-04-16 09:47 | 53.27682 | 36.89838 | 30117 ft | 464 kts | 352° |
| 2026-04-16 09:48 | 53.34106 | 36.88273 | 30122 ft | 465 kts | 352° |
| 2026-04-16 09:48 | 53.40465 | 36.86720 | 30111 ft | 465 kts | 352° |
| 2026-04-16 09:49 | 53.46874 | 36.85148 | 30111 ft | 466 kts | 352° |
| 2026-04-16 09:49 | 53.53302 | 36.83567 | 30104 ft | 465 kts | 352° |
| 2026-04-16 09:50 | 53.59697 | 36.81988 | 30108 ft | 466 kts | 353° |
| 2026-04-16 09:50 | 53.66070 | 36.80409 | 30109 ft | 466 kts | 353° |
| 2026-04-16 09:50 | 53.69244 | 36.79620 | 30104 ft | 454 kts | 353° |
| 2026-04-16 09:51 | 53.72296 | 36.78860 | 30038 ft | 441 kts | 353° |
| 2026-04-16 09:51 | 53.75296 | 36.78110 | 29729 ft | 435 kts | 353° |
| 2026-04-16 09:51 | 53.78286 | 36.77361 | 29279 ft | 433 kts | 353° |
| 2026-04-16 09:51 | 53.81250 | 36.76621 | 28780 ft | 432 kts | 353° |
| 2026-04-16 09:52 | 53.84180 | 36.75892 | 28280 ft | 431 kts | 353° |
| 2026-04-16 09:52 | 53.87123 | 36.75158 | 27771 ft | 430 kts | 353° |
| 2026-04-16 09:52 | 53.90072 | 36.74420 | 27261 ft | 429 kts | 353° |
| 2026-04-16 09:52 | 53.93003 | 36.73685 | 26753 ft | 428 kts | 353° |
| 2026-04-16 09:53 | 53.95929 | 36.72958 | 26243 ft | 427 kts | 354° |
| 2026-04-16 09:53 | 53.98901 | 36.72535 | 25718 ft | 424 kts | 2° |
| 2026-04-16 09:53 | 54.01770 | 36.72978 | 25221 ft | 416 kts | 17° |
| 2026-04-16 09:53 | 54.04468 | 36.74522 | 24740 ft | 406 kts | 30° |
| 2026-04-16 09:54 | 54.06998 | 36.76584 | 24257 ft | 403 kts | 33° |
| 2026-04-16 09:54 | 54.09462 | 36.78776 | 23751 ft | 400 kts | 34° |
| 2026-04-16 09:54 | 54.11888 | 36.80991 | 23259 ft | 398 kts | 34° |
| 2026-04-16 09:54 | 54.14312 | 36.83211 | 22782 ft | 396 kts | 34° |
| 2026-04-16 09:55 | 54.16750 | 36.85439 | 22281 ft | 393 kts | 34° |
| 2026-04-16 09:55 | 54.19125 | 36.87600 | 21808 ft | 391 kts | 34° |
| 2026-04-16 09:55 | 54.21518 | 36.89771 | 21327 ft | 389 kts | 33° |
| 2026-04-16 09:55 | 54.23909 | 36.91935 | 20847 ft | 387 kts | 33° |
| 2026-04-16 09:56 | 54.26271 | 36.94070 | 20365 ft | 385 kts | 33° |
| 2026-04-16 09:56 | 54.28616 | 36.96188 | 19884 ft | 383 kts | 33° |
| 2026-04-16 09:56 | 54.30960 | 36.98304 | 19412 ft | 381 kts | 33° |
| 2026-04-16 09:56 | 54.33289 | 37.00408 | 18932 ft | 378 kts | 33° |
| 2026-04-16 09:57 | 54.35583 | 37.02481 | 18467 ft | 371 kts | 33° |
| 2026-04-16 09:57 | 54.37827 | 37.04508 | 18015 ft | 364 kts | 33° |
| 2026-04-16 09:57 | 54.40069 | 37.06536 | 17553 ft | 358 kts | 33° |
| 2026-04-16 09:57 | 54.42225 | 37.08493 | 17113 ft | 352 kts | 33° |
| 2026-04-16 09:58 | 54.44367 | 37.10440 | 16669 ft | 346 kts | 33° |
| 2026-04-16 09:58 | 54.46484 | 37.12365 | 16236 ft | 340 kts | 33° |
| 2026-04-16 09:58 | 54.48536 | 37.14232 | 15826 ft | 337 kts | 33° |
| 2026-04-16 09:58 | 54.50597 | 37.16110 | 15383 ft | 336 kts | 33° |
| 2026-04-16 09:59 | 54.52654 | 37.17989 | 14955 ft | 336 kts | 33° |
| 2026-04-16 09:59 | 54.54724 | 37.19883 | 14525 ft | 335 kts | 32° |
| 2026-04-16 09:59 | 54.56768 | 37.21756 | 14098 ft | 335 kts | 33° |
| 2026-04-16 09:59 | 54.58816 | 37.23632 | 13653 ft | 335 kts | 32° |
| 2026-04-16 10:00 | 54.60887 | 37.25502 | 13218 ft | 335 kts | 30° |
| 2026-04-16 10:00 | 54.63022 | 37.27004 | 13116 ft | 329 kts | 23° |
| 2026-04-16 10:00 | 54.65184 | 37.28235 | 13013 ft | 326 kts | 21° |
| 2026-04-16 10:01 | 54.69470 | 37.30488 | 12211 ft | 325 kts | 20° |
| 2026-04-16 10:01 | 54.71647 | 37.31642 | 11790 ft | 325 kts | 20° |
| 2026-04-16 10:01 | 54.73792 | 37.32794 | 11374 ft | 325 kts | 20° |
| 2026-04-16 10:01 | 54.75976 | 37.33808 | 11116 ft | 321 kts | 13° |
| 2026-04-16 10:02 | 54.78143 | 37.34246 | 11036 ft | 311 kts | 5° |
| 2026-04-16 10:02 | 54.80320 | 37.34369 | 10783 ft | 316 kts | 2° |
| 2026-04-16 10:02 | 54.82536 | 37.34399 | 10393 ft | 321 kts | 2° |
| 2026-04-16 10:02 | 54.84740 | 37.34435 | 10058 ft | 319 kts | 2° |
| 2026-04-16 10:03 | 54.86926 | 37.34499 | 9897 ft | 310 kts | 3° |
| 2026-04-16 10:03 | 54.89059 | 37.34583 | 9481 ft | 311 kts | 3° |
| 2026-04-16 10:03 | 54.91219 | 37.34684 | 9144 ft | 308 kts | 3° |
| 2026-04-16 10:03 | 54.93315 | 37.34788 | 9121 ft | 294 kts | 4° |
| 2026-04-16 10:04 | 54.95339 | 37.34900 | 9125 ft | 286 kts | 4° |
| 2026-04-16 10:04 | 54.97313 | 37.35017 | 9125 ft | 288 kts | 4° |
| 2026-04-16 10:04 | 54.99309 | 37.35137 | 9121 ft | 287 kts | 4° |
| 2026-04-16 10:04 | 55.01308 | 37.35254 | 9122 ft | 288 kts | 4° |
| 2026-04-16 10:05 | 55.03300 | 37.35368 | 9119 ft | 282 kts | 4° |
| 2026-04-16 10:05 | 55.05213 | 37.35474 | 9116 ft | 275 kts | 4° |
| 2026-04-16 10:05 | 55.07120 | 37.35584 | 9116 ft | 276 kts | 4° |
| 2026-04-16 10:05 | 55.09048 | 37.35698 | 9119 ft | 275 kts | 4° |
| 2026-04-16 10:06 | 55.10971 | 37.35811 | 9122 ft | 276 kts | 4° |
| 2026-04-16 10:06 | 55.12864 | 37.35921 | 9040 ft | 272 kts | 4° |
| 2026-04-16 10:06 | 55.14726 | 37.36028 | 8804 ft | 268 kts | 4° |
| 2026-04-16 10:06 | 55.16589 | 37.36134 | 8506 ft | 267 kts | 4° |
| 2026-04-16 10:07 | 55.18449 | 37.36242 | 8208 ft | 265 kts | 4° |
| 2026-04-16 10:07 | 55.20267 | 37.36350 | 7920 ft | 264 kts | 4° |
| 2026-04-16 10:07 | 55.22097 | 37.36459 | 7628 ft | 262 kts | 4° |
| 2026-04-16 10:07 | 55.23913 | 37.36570 | 7338 ft | 261 kts | 4° |
| 2026-04-16 10:08 | 55.25717 | 37.36677 | 7044 ft | 259 kts | 4° |
| 2026-04-16 10:08 | 55.27508 | 37.36779 | 6760 ft | 258 kts | 4° |
| 2026-04-16 10:08 | 55.29284 | 37.36878 | 6476 ft | 258 kts | 4° |
| 2026-04-16 10:08 | 55.31066 | 37.36746 | 6190 ft | 258 kts | 349° |
| 2026-04-16 10:09 | 55.32690 | 37.35448 | 6083 ft | 255 kts | 319° |
| 2026-04-16 10:09 | 55.33955 | 37.33231 | 5920 ft | 261 kts | 310° |
| 2026-04-16 10:09 | 55.35140 | 37.30850 | 5562 ft | 262 kts | 309° |
| 2026-04-16 10:09 | 55.36349 | 37.28486 | 5262 ft | 260 kts | 311° |
| 2026-04-16 10:10 | 55.37575 | 37.26181 | 5113 ft | 253 kts | 312° |
| 2026-04-16 10:10 | 55.38781 | 37.23948 | 5125 ft | 250 kts | 312° |
| 2026-04-16 10:10 | 55.39973 | 37.21738 | 5127 ft | 251 kts | 312° |
| 2026-04-16 10:10 | 55.41173 | 37.19507 | 5119 ft | 251 kts | 312° |
| 2026-04-16 10:11 | 55.42385 | 37.17247 | 4898 ft | 254 kts | 312° |
| 2026-04-16 10:11 | 55.43597 | 37.15001 | 4553 ft | 255 kts | 314° |
| 2026-04-16 10:11 | 55.44892 | 37.12873 | 4247 ft | 255 kts | 318° |
| 2026-04-16 10:11 | 55.46249 | 37.10827 | 3832 ft | 259 kts | 320° |
| 2026-04-16 10:12 | 55.47602 | 37.08839 | 3672 ft | 251 kts | 320° |
| 2026-04-16 10:12 | 55.48935 | 37.06943 | 3605 ft | 238 kts | 325° |
| 2026-04-16 10:12 | 55.50364 | 37.05574 | 3467 ft | 234 kts | 340° |
| 2026-04-16 10:12 | 55.51931 | 37.04859 | 3223 ft | 228 kts | 0° |
| 2026-04-16 10:13 | 55.53420 | 37.05365 | 3048 ft | 213 kts | 27° |
| 2026-04-16 10:13 | 55.54627 | 37.06754 | 2822 ft | 201 kts | 51° |
| 2026-04-16 10:13 | 55.55322 | 37.08723 | 2547 ft | 183 kts | 71° |
| 2026-04-16 10:13 | 55.55726 | 37.10760 | 2313 ft | 169 kts | 72° |
| 2026-04-16 10:14 | 55.56133 | 37.12607 | 2078 ft | 159 kts | 71° |
| 2026-04-16 10:14 | 55.56519 | 37.14341 | 1879 ft | 144 kts | 71° |
| 2026-04-16 10:14 | 55.56875 | 37.15942 | 1674 ft | 139 kts | 71° |
| 2026-04-16 10:14 | 55.57226 | 37.17529 | 1521 ft | 142 kts | 71° |
| 2026-04-16 10:15 | 55.57568 | 37.19165 | 1260 ft | 137 kts | 72° |
| 2026-04-16 10:15 | 55.57910 | 37.20744 | 1131 ft | 141 kts | 69° |
| 2026-04-16 10:15 | 55.58295 | 37.22349 | 911 ft | 141 kts | 69° |
| 2026-04-16 10:15 | 55.58656 | 37.23918 | 735 ft | 137 kts | 69° |
| 2026-04-16 10:16 | 55.58983 | 37.25376 | 695 ft | 106 kts | 68° |
| 2026-04-16 10:16 | 55.59188 | 37.26292 | 695 ft | 56 kts | 68° |
| 2026-04-16 10:16 | 55.59303 | 37.26799 | 695 ft | 40 kts | 69° |
| 2026-04-16 10:16 | 55.59401 | 37.27230 | 695 ft | 33 kts | 64° |
| 2026-04-16 10:17 | 55.59541 | 37.27531 | 695 ft | 30 kts | 38° |
| 2026-04-16 10:17 | 55.59692 | 37.27733 | 695 ft | 25 kts | 27° |
| 2026-04-16 10:17 | 55.59852 | 37.27831 | 695 ft | 23 kts | 18° |
| 2026-04-16 10:17 | 55.59972 | 37.27850 | 695 ft | 16 kts | 318° |
| 2026-04-16 10:18 | 55.60046 | 37.27773 | 695 ft | 11 kts | 30° |
| 2026-04-16 10:18 | 55.60099 | 37.27857 | 695 ft | 9 kts | 46° |
| 2026-04-16 10:18 | 55.60122 | 37.27953 | 695 ft | 7 kts | 69° |
| 2026-04-16 10:18 | 55.60154 | 37.28017 | 695 ft | 6 kts | 37° |
| 2026-04-16 10:19 | 55.60180 | 37.28052 | 695 ft | 2 kts | 36° |
| 2026-04-16 10:19 | 55.60181 | 37.28053 | 695 ft | 0 kts | 36° |